Time;durP1;ratioP1;P1;durP2;ratioP2;P2;SDS_P1;SDS_P2;PMS_P1;PMS_P2;Temp;Humidity;BMP_temperature;BMP_pressure;BME280_temperature;BME280_humidity;BME280_pressure;Samples;Min_cycle;Max_cycle;Signal;HPM_P1;HPM_P2
2022/08/12 00:46:29;;;;;;;;;;;27.40;35.90;;;;;;8404277;28;19958;-45
2022/08/12 00:49:58;;;;;;;;;;;27.40;35.90;;;;;;8401328;28;19916;-45
2022/08/12 00:53:58;;;;;;;;;;;27.40;35.90;;;;;;8401766;28;20335;-44
2022/08/12 00:58:01;;;;;;;;;;;27.40;35.90;;;;;;8401579;28;19969;-45
2022/08/12 01:02:03;;;;;;;;;;;27.40;35.90;;;;;;8398534;28;19948;-44
2022/08/12 01:14:44;;;;;;;;;;;27.40;35.90;;;;;;8399576;28;19930;-44
2022/08/12 01:18:44;;;;;;;;;;;27.40;35.90;;;;;;8400788;28;19920;-44
2022/08/12 01:23:09;;;;;;;;;;;27.30;35.90;;;;;;8400854;28;20380;-45
2022/08/12 01:27:13;;;;;;;;;;;27.30;35.90;;;;;;8400275;28;19964;-44
2022/08/12 01:31:15;;;;;;;;;;;27.30;35.90;;;;;;8400736;28;19924;-44
2022/08/12 01:35:16;;;;;;;;;;;27.30;35.80;;;;;;8399844;28;19927;-44
2022/08/12 01:39:16;;;;;;;;;;;27.30;35.90;;;;;;8400435;28;19919;-44
2022/08/12 01:43:20;;;;;;;;;;;27.30;35.90;;;;;;8400171;28;20266;-44
2022/08/12 01:47:29;;;;;;;;;;;27.30;35.90;;;;;;8399559;28;20100;-43
2022/08/12 01:51:41;;;;;;;;;;;27.30;36.00;;;;;;8400089;28;19917;-44
2022/08/12 01:55:45;;;;;;;;;;;27.20;35.90;;;;;;8399826;28;19925;-45
2022/08/12 02:00:03;;;;;;;;;;;27.30;36.00;;;;;;8399311;28;20011;-44
2022/08/12 02:13:13;;;;;;;;;;;27.20;35.90;;;;;;8404677;28;19970;-44
2022/08/12 02:17:34;;;;;;;;;;;27.20;36.00;;;;;;8398633;28;20011;-44
2022/08/12 02:21:42;;;;;;;;;;;27.20;36.00;;;;;;8399102;28;19920;-45
2022/08/12 02:25:43;;;;;;;;;;;27.20;36.00;;;;;;8398847;28;19913;-44
2022/08/12 02:29:44;;;;;;;;;;;27.20;36.00;;;;;;8398282;28;19923;-44
2022/08/12 02:33:46;;;;;;;;;;;27.20;36.00;;;;;;8398535;28;20007;-43
2022/08/12 02:37:48;;;;;;;;;;;27.10;36.00;;;;;;8398329;28;19919;-44
2022/08/12 02:41:49;;;;;;;;;;;27.10;36.00;;;;;;8397944;28;20273;-44
2022/08/12 02:46:03;;;;;;;;;;;27.10;36.00;;;;;;8398140;28;20353;-44
2022/08/12 02:50:04;;;;;;;;;;;27.10;36.00;;;;;;8397682;28;19917;-45
2022/08/12 02:54:06;;;;;;;;;;;27.10;36.00;;;;;;8397757;28;19928;-46
2022/08/12 02:58:08;;;;;;;;;;;27.10;36.00;;;;;;8398328;28;19916;-44
2022/08/12 03:02:11;;;;;;;;;;;27.10;36.00;;;;;;8397175;28;20358;-44
2022/08/12 03:06:14;;;;;;;;;;;27.10;36.10;;;;;;8397848;28;19928;-44
2022/08/12 03:10:20;;;;;;;;;;;27.10;36.10;;;;;;8397900;28;20258;-46
2022/08/12 03:14:21;;;;;;;;;;;27.00;36.00;;;;;;8396699;28;19924;-44
2022/08/12 03:18:26;;;;;;;;;;;27.00;36.00;;;;;;8397085;28;19916;-47
2022/08/12 03:22:28;;;;;;;;;;;27.00;36.00;;;;;;8397202;28;19912;-44
2022/08/12 03:26:29;;;;;;;;;;;27.00;36.00;;;;;;8394723;28;20011;-44
2022/08/12 03:30:31;;;;;;;;;;;27.00;36.10;;;;;;8397017;28;19965;-45
2022/08/12 03:34:34;;;;;;;;;;;27.00;36.00;;;;;;8396302;28;19925;-44
2022/08/12 03:38:36;;;;;;;;;;;27.00;36.00;;;;;;8395683;28;20324;-44
2022/08/12 03:42:39;;;;;;;;;;;26.90;36.00;;;;;;8396078;28;19917;-44
2022/08/12 04:04:02;;;;;;;;;;;26.90;36.00;;;;;;8395562;28;19924;-44
2022/08/12 04:08:03;;;;;;;;;;;26.90;36.00;;;;;;8395729;28;19916;-44
2022/08/12 04:16:23;;;;;;;;;;;26.90;36.00;;;;;;8397549;28;19961;-44
2022/08/12 04:20:23;;;;;;;;;;;26.90;36.10;;;;;;8395768;28;19913;-44
2022/08/12 04:24:25;;;;;;;;;;;26.90;36.00;;;;;;8396155;28;19921;-44
2022/08/12 04:28:26;;;;;;;;;;;26.80;36.00;;;;;;8396483;28;19938;-44
2022/08/12 04:32:27;;;;;;;;;;;26.80;36.00;;;;;;8395519;28;19927;-44
2022/08/12 04:36:28;;;;;;;;;;;26.80;36.00;;;;;;8395685;28;19955;-44
2022/08/12 04:40:29;;;;;;;;;;;26.80;36.00;;;;;;8396043;28;20434;-45
2022/08/12 04:44:30;;;;;;;;;;;26.80;36.00;;;;;;8395096;28;19916;-45
2022/08/12 04:48:31;;;;;;;;;;;26.80;36.00;;;;;;8398972;28;19916;-45
2022/08/12 04:52:31;;;;;;;;;;;26.80;36.00;;;;;;8401746;28;19913;-44
2022/08/12 04:56:32;;;;;;;;;;;26.80;36.00;;;;;;8401065;28;20003;-45
2022/08/12 05:00:33;;;;;;;;;;;26.80;36.00;;;;;;8401646;28;19916;-46
2022/08/12 05:04:34;;;;;;;;;;;26.80;36.00;;;;;;8399884;28;20000;-45
2022/08/12 05:08:35;;;;;;;;;;;26.70;36.00;;;;;;8400728;28;19920;-45
2022/08/12 05:12:38;;;;;;;;;;;26.80;36.00;;;;;;8401111;28;19912;-44
2022/08/12 05:16:38;;;;;;;;;;;26.70;36.00;;;;;;8400952;28;20014;-45
2022/08/12 05:20:41;;;;;;;;;;;26.70;36.00;;;;;;8400603;28;19921;-44
2022/08/12 05:24:43;;;;;;;;;;;26.70;36.00;;;;;;8400820;28;19916;-44
2022/08/12 05:28:45;;;;;;;;;;;26.70;36.00;;;;;;8400629;28;19916;-45
2022/08/12 05:32:45;;;;;;;;;;;26.70;36.00;;;;;;8400110;28;20019;-46
2022/08/12 05:36:45;;;;;;;;;;;26.70;36.00;;;;;;8400653;28;19912;-45
2022/08/12 05:40:47;;;;;;;;;;;26.70;36.00;;;;;;8400394;28;20003;-45
2022/08/12 05:44:47;;;;;;;;;;;26.70;36.00;;;;;;8400126;28;19917;-45
2022/08/12 05:48:48;;;;;;;;;;;26.70;36.00;;;;;;8399893;28;19920;-44
2022/08/12 05:52:48;;;;;;;;;;;26.70;36.00;;;;;;8399902;28;19935;-45
2022/08/12 05:56:50;;;;;;;;;;;26.60;36.00;;;;;;8399161;28;19920;-46
2022/08/12 06:00:50;;;;;;;;;;;26.60;36.00;;;;;;8399198;28;19916;-45
2022/08/12 06:04:52;;;;;;;;;;;26.70;36.00;;;;;;8399215;28;19923;-45
2022/08/12 06:08:53;;;;;;;;;;;26.60;36.10;;;;;;8398944;28;19931;-46
2022/08/12 06:12:57;;;;;;;;;;;26.60;36.00;;;;;;8416119;28;19950;-46
2022/08/12 06:16:58;;;;;;;;;;;26.60;36.00;;;;;;8405996;28;20011;-45
2022/08/12 06:20:59;;;;;;;;;;;26.60;36.00;;;;;;8399130;28;19916;-44
2022/08/12 06:24:59;;;;;;;;;;;26.60;36.00;;;;;;8398640;28;20294;-44
2022/08/12 06:28:59;;;;;;;;;;;26.60;36.00;;;;;;8398060;28;19919;-45
2022/08/12 06:33:02;;;;;;;;;;;26.70;36.00;;;;;;8398447;28;19920;-46
2022/08/12 06:37:03;;;;;;;;;;;26.60;36.00;;;;;;8398518;28;19912;-45
2022/08/12 06:45:25;;;;;;;;;;;26.60;36.00;;;;;;8398227;28;20023;-45
2022/08/12 06:49:27;;;;;;;;;;;26.60;36.00;;;;;;8397756;28;19916;-45
2022/08/12 06:53:28;;;;;;;;;;;26.60;36.00;;;;;;8397175;28;19925;-45
2022/08/12 06:57:29;;;;;;;;;;;26.60;35.90;;;;;;8397881;28;19912;-44
2022/08/12 07:01:30;;;;;;;;;;;26.60;35.90;;;;;;8397602;28;19956;-46
2022/08/12 07:05:31;;;;;;;;;;;26.70;35.90;;;;;;8395977;28;19916;-44
2022/08/12 07:09:31;;;;;;;;;;;26.70;35.90;;;;;;8397004;28;19917;-44
2022/08/12 07:13:42;;;;;;;;;;;26.70;35.90;;;;;;8396303;28;19929;-44
2022/08/12 07:17:42;;;;;;;;;;;26.70;35.80;;;;;;8396680;28;19947;-44
2022/08/12 07:21:43;;;;;;;;;;;26.80;35.80;;;;;;8397285;28;19919;-45
2022/08/12 07:25:44;;;;;;;;;;;26.70;35.70;;;;;;8397002;28;19930;-45
2022/08/12 07:29:46;;;;;;;;;;;26.70;35.80;;;;;;8396443;28;19987;-45
2022/08/12 07:33:48;;;;;;;;;;;26.70;35.80;;;;;;8396418;28;19928;-44
2022/08/12 07:37:49;;;;;;;;;;;26.70;35.80;;;;;;8397415;28;19920;-46
2022/08/12 07:41:49;;;;;;;;;;;26.70;35.80;;;;;;8396288;28;20317;-45
2022/08/12 07:45:50;;;;;;;;;;;26.80;35.90;;;;;;8396435;28;19921;-45
2022/08/12 07:49:53;;;;;;;;;;;26.80;35.80;;;;;;8396109;28;20366;-47
2022/08/12 07:53:54;;;;;;;;;;;26.70;35.70;;;;;;8396198;28;19925;-45
2022/08/12 07:57:58;;;;;;;;;;;26.80;35.70;;;;;;8396671;28;19923;-47
2022/08/12 08:01:59;;;;;;;;;;;26.80;35.70;;;;;;8396300;28;19912;-45
2022/08/12 08:06:00;;;;;;;;;;;26.80;35.80;;;;;;8396017;28;20001;-44
2022/08/12 08:10:02;;;;;;;;;;;26.80;35.70;;;;;;8396168;28;19920;-45
2022/08/12 08:14:04;;;;;;;;;;;26.80;35.80;;;;;;8395763;28;20297;-45
2022/08/12 08:18:09;;;;;;;;;;;26.80;35.80;;;;;;8396353;28;19925;-44
2022/08/12 08:22:09;;;;;;;;;;;26.80;35.80;;;;;;8397528;28;20000;-44
2022/08/12 08:26:12;;;;;;;;;;;26.80;35.70;;;;;;8402084;28;20447;-45
2022/08/12 08:30:13;;;;;;;;;;;26.80;35.80;;;;;;8402835;28;19923;-45
2022/08/12 08:34:13;;;;;;;;;;;26.80;35.80;;;;;;8402295;28;19928;-45
2022/08/12 08:38:16;;;;;;;;;;;26.80;35.80;;;;;;8401957;28;19936;-45
2022/08/12 08:46:36;;;;;;;;;;;26.90;35.80;;;;;;8405144;28;19923;-44
2022/08/12 08:50:36;;;;;;;;;;;26.90;35.80;;;;;;8401313;28;19954;-44
2022/08/12 08:54:37;;;;;;;;;;;26.90;35.80;;;;;;8401516;28;19924;-45
2022/08/12 08:58:37;;;;;;;;;;;26.90;35.80;;;;;;8401637;28;19964;-45
2022/08/12 09:02:38;;;;;;;;;;;26.90;35.80;;;;;;8401560;28;19917;-44
2022/08/12 09:06:40;;;;;;;;;;;26.90;35.80;;;;;;8401381;28;19928;-45
2022/08/12 09:10:40;;;;;;;;;;;26.90;35.80;;;;;;8401396;28;20005;-44
2022/08/12 09:14:42;;;;;;;;;;;26.90;35.70;;;;;;8400429;28;19925;-46
2022/08/12 09:18:42;;;;;;;;;;;27.00;35.80;;;;;;8400951;28;19920;-45
2022/08/12 09:22:44;;;;;;;;;;;27.00;35.90;;;;;;8400936;28;19916;-45
2022/08/12 09:26:45;;;;;;;;;;;27.00;35.80;;;;;;8400223;28;19921;-46
2022/08/12 09:30:49;;;;;;;;;;;27.00;35.70;;;;;;8400799;28;19920;-45
2022/08/12 09:34:49;;;;;;;;;;;27.10;35.70;;;;;;8399266;28;19924;-45
2022/08/12 09:38:50;;;;;;;;;;;27.10;35.70;;;;;;8399925;28;19939;-45
2022/08/12 09:47:27;;;;;;;;;;;27.10;35.70;;;;;;8389209;28;19924;-45
2022/08/12 09:51:31;;;;;;;;;;;27.10;35.70;;;;;;8400290;28;20001;-45
2022/08/12 09:55:33;;;;;;;;;;;27.10;35.70;;;;;;8399024;28;19932;-45
2022/08/12 09:59:34;;;;;;;;;;;27.20;35.80;;;;;;8398093;28;19923;-46
2022/08/12 10:03:36;;;;;;;;;;;27.10;35.60;;;;;;8399708;28;19916;-46
2022/08/12 10:07:37;;;;;;;;;;;27.20;35.60;;;;;;8399578;28;19913;-46
2022/08/12 10:15:56;;;;;;;;;;;27.20;35.50;;;;;;8404477;28;19930;-46
2022/08/12 10:19:57;;;;;;;;;;;27.20;35.60;;;;;;8398582;28;20361;-45
2022/08/12 10:23:57;;;;;;;;;;;27.20;35.60;;;;;;8398854;28;19916;-45
2022/08/12 10:32:22;;;;;;;;;;;27.30;35.60;;;;;;8398487;28;19927;-45
2022/08/12 10:36:23;;;;;;;;;;;27.30;35.60;;;;;;8398315;28;19978;-45
2022/08/12 10:40:24;;;;;;;;;;;27.30;35.60;;;;;;8398576;28;19935;-45
2022/08/12 10:44:26;;;;;;;;;;;27.30;35.60;;;;;;8397670;28;20289;-45
2022/08/12 10:48:27;;;;;;;;;;;27.30;35.60;;;;;;8398230;28;19912;-44
2022/08/12 10:52:31;;;;;;;;;;;27.40;35.60;;;;;;8398035;28;20011;-45
2022/08/12 10:56:31;;;;;;;;;;;27.40;35.60;;;;;;8397296;28;20015;-44
2022/08/12 11:00:33;;;;;;;;;;;27.40;35.60;;;;;;8397972;28;19917;-45
2022/08/12 11:04:37;;;;;;;;;;;27.40;35.60;;;;;;8397702;28;20456;-44
2022/08/12 11:08:38;;;;;;;;;;;27.40;35.50;;;;;;8397179;28;20003;-44
2022/08/12 11:12:44;;;;;;;;;;;27.40;35.50;;;;;;8397771;28;19927;-44
2022/08/12 11:16:45;;;;;;;;;;;27.50;35.60;;;;;;8399958;28;20381;-44
2022/08/12 11:20:46;;;;;;;;;;;27.50;35.50;;;;;;8396603;28;19920;-44
2022/08/12 11:24:47;;;;;;;;;;;27.50;35.50;;;;;;8397064;28;19923;-45
2022/08/12 11:28:47;;;;;;;;;;;27.50;35.50;;;;;;8397459;28;19913;-46
2022/08/12 11:32:47;;;;;;;;;;;27.50;35.50;;;;;;8396721;28;19931;-46
2022/08/12 11:36:49;;;;;;;;;;;27.50;35.50;;;;;;8396736;28;19931;-45
2022/08/12 11:40:50;;;;;;;;;;;27.60;35.50;;;;;;8396980;28;20011;-45
2022/08/12 11:44:50;;;;;;;;;;;27.60;35.50;;;;;;8396626;28;19916;-47
2022/08/12 11:48:51;;;;;;;;;;;27.60;35.60;;;;;;8396938;28;19920;-45
2022/08/12 11:52:51;;;;;;;;;;;27.60;35.40;;;;;;8396487;28;20012;-45
2022/08/12 11:56:51;;;;;;;;;;;27.70;35.50;;;;;;8429060;28;19927;-45
2022/08/12 12:00:52;;;;;;;;;;;27.70;35.50;;;;;;8430014;28;20309;-45
2022/08/12 12:04:52;;;;;;;;;;;27.70;35.40;;;;;;8429416;28;19951;-44
2022/08/12 12:08:53;;;;;;;;;;;27.70;35.40;;;;;;8430030;28;19959;-44
2022/08/12 12:12:54;;;;;;;;;;;27.70;35.40;;;;;;8429716;28;19916;-44
2022/08/12 12:16:54;;;;;;;;;;;27.70;35.40;;;;;;8410936;28;19920;-46
2022/08/12 12:20:59;;;;;;;;;;;27.80;35.50;;;;;;8429454;28;19927;-46
2022/08/12 12:24:59;;;;;;;;;;;27.70;35.40;;;;;;8429607;28;19913;-44
2022/08/12 12:29:00;;;;;;;;;;;27.80;35.40;;;;;;8429253;28;19923;-46
2022/08/12 12:33:00;;;;;;;;;;;27.80;35.40;;;;;;8429297;28;20014;-46
2022/08/12 12:37:01;;;;;;;;;;;27.80;35.30;;;;;;8429281;28;19991;-46
2022/08/12 12:41:01;;;;;;;;;;;27.90;35.30;;;;;;8428735;28;19912;-46
2022/08/12 12:45:02;;;;;;;;;;;27.90;35.30;;;;;;8429117;28;20361;-47
2022/08/12 12:49:02;;;;;;;;;;;27.90;35.30;;;;;;8429337;28;20299;-44
2022/08/12 12:53:03;;;;;;;;;;;28.00;35.30;;;;;;8428500;28;20339;-44
2022/08/12 12:57:04;;;;;;;;;;;28.00;35.30;;;;;;8426842;28;19928;-44
2022/08/12 13:01:04;;;;;;;;;;;28.00;35.30;;;;;;8428358;28;19916;-44
2022/08/12 13:05:06;;;;;;;;;;;28.00;35.30;;;;;;8428390;28;20414;-45
2022/08/12 13:09:06;;;;;;;;;;;28.00;35.30;;;;;;8428997;28;19993;-44
2022/08/12 13:13:06;;;;;;;;;;;28.00;35.30;;;;;;8434595;28;19916;-45
2022/08/12 13:17:10;;;;;;;;;;;28.10;35.30;;;;;;8434054;28;19935;-45
2022/08/12 13:21:14;;;;;;;;;;;28.00;35.20;;;;;;8434625;28;19916;-45
2022/08/12 13:25:15;;;;;;;;;;;28.10;35.20;;;;;;8434539;28;20369;-45
2022/08/12 13:29:16;;;;;;;;;;;28.10;35.10;;;;;;8433979;28;19962;-46
2022/08/12 13:33:21;;;;;;;;;;;28.10;35.00;;;;;;8433864;28;19924;-45
2022/08/12 13:37:24;;;;;;;;;;;28.10;35.10;;;;;;8434163;28;19912;-45
2022/08/12 13:41:34;;;;;;;;;;;28.10;35.10;;;;;;8433362;28;19920;-45
2022/08/12 13:45:35;;;;;;;;;;;28.10;35.20;;;;;;8433958;28;19939;-45
2022/08/12 13:49:35;;;;;;;;;;;28.10;35.20;;;;;;8433796;28;19928;-44
2022/08/12 13:53:36;;;;;;;;;;;28.10;35.10;;;;;;8432880;28;19924;-45
2022/08/12 13:57:42;;;;;;;;;;;28.10;35.10;;;;;;8433249;28;19916;-45
2022/08/12 14:01:43;;;;;;;;;;;28.10;35.10;;;;;;8433108;28;19916;-45
2022/08/12 14:05:43;;;;;;;;;;;28.10;35.10;;;;;;8432518;28;19920;-45
2022/08/12 14:14:03;;;;;;;;;;;28.20;35.10;;;;;;8434149;28;19931;-45
2022/08/12 14:18:14;;;;;;;;;;;28.10;35.10;;;;;;8432786;28;20369;-44
2022/08/12 14:22:16;;;;;;;;;;;28.20;35.10;;;;;;8431990;28;19916;-48
2022/08/12 14:26:19;;;;;;;;;;;28.20;35.10;;;;;;8432031;28;19916;-44
2022/08/12 14:30:19;;;;;;;;;;;28.20;35.10;;;;;;8432256;28;19912;-45
2022/08/12 14:34:20;;;;;;;;;;;28.20;35.10;;;;;;8432494;28;19974;-46
2022/08/12 14:38:22;;;;;;;;;;;28.20;35.10;;;;;;8431536;28;19923;-45
2022/08/12 14:42:22;;;;;;;;;;;28.20;35.10;;;;;;8431797;28;19924;-44
2022/08/12 14:46:23;;;;;;;;;;;28.20;35.10;;;;;;8431755;28;19990;-44
2022/08/12 14:50:23;;;;;;;;;;;28.20;35.10;;;;;;8431161;28;19916;-46
2022/08/12 14:54:24;;;;;;;;;;;28.20;35.10;;;;;;8431919;28;19963;-45
2022/08/12 14:58:25;;;;;;;;;;;28.20;35.10;;;;;;8431187;28;20297;-46
2022/08/12 15:02:28;;;;;;;;;;;28.20;34.90;;;;;;8430687;28;19921;-46
2022/08/12 15:06:28;;;;;;;;;;;28.20;35.00;;;;;;8431086;28;19912;-44
2022/08/12 15:10:29;;;;;;;;;;;28.20;35.00;;;;;;8431364;28;19947;-43
2022/08/12 15:14:30;;;;;;;;;;;28.20;35.00;;;;;;8430255;28;19967;-43
2022/08/12 15:18:31;;;;;;;;;;;28.20;35.00;;;;;;8430843;28;19916;-44
2022/08/12 15:22:31;;;;;;;;;;;28.20;35.00;;;;;;8430768;28;19913;-43
2022/08/12 15:26:35;;;;;;;;;;;28.20;34.90;;;;;;8430060;28;20377;-44
2022/08/12 15:30:37;;;;;;;;;;;28.30;34.90;;;;;;8430551;28;19916;-44
2022/08/12 15:34:37;;;;;;;;;;;28.30;34.90;;;;;;8429617;28;20035;-46
2022/08/12 15:38:38;;;;;;;;;;;28.30;35.00;;;;;;8429791;28;19920;-44
2022/08/12 15:42:38;;;;;;;;;;;28.30;34.90;;;;;;8430145;28;19920;-44
2022/08/12 15:46:39;;;;;;;;;;;28.30;35.00;;;;;;8430215;28;19949;-44
2022/08/12 15:50:42;;;;;;;;;;;28.30;35.00;;;;;;8429607;28;19998;-43
2022/08/12 15:54:43;;;;;;;;;;;28.30;35.00;;;;;;8429868;28;20019;-43
2022/08/12 15:58:45;;;;;;;;;;;28.30;34.90;;;;;;8429854;28;19923;-44
2022/08/12 16:02:46;;;;;;;;;;;28.30;34.80;;;;;;8429297;28;20343;-43
2022/08/12 16:06:50;;;;;;;;;;;28.20;34.80;;;;;;8429231;28;19916;-43
2022/08/12 16:10:51;;;;;;;;;;;28.30;34.90;;;;;;8430074;28;19919;-43
2022/08/12 16:14:53;;;;;;;;;;;28.30;34.90;;;;;;8421277;28;19969;-43
2022/08/12 16:18:56;;;;;;;;;;;28.30;35.00;;;;;;8394952;28;19923;-44
2022/08/12 16:23:02;;;;;;;;;;;28.30;34.90;;;;;;8395849;28;20254;-45
2022/08/12 16:27:04;;;;;;;;;;;28.30;34.80;;;;;;8399247;28;19916;-44
2022/08/12 16:31:04;;;;;;;;;;;28.30;34.80;;;;;;8395977;28;19955;-44
2022/08/12 16:35:06;;;;;;;;;;;28.30;34.70;;;;;;8395717;28;20011;-44
2022/08/12 16:39:07;;;;;;;;;;;28.30;34.80;;;;;;8396038;28;19959;-45
2022/08/12 16:43:26;;;;;;;;;;;28.20;34.70;;;;;;8397222;28;19919;-45
2022/08/12 16:47:27;;;;;;;;;;;28.30;34.90;;;;;;8401652;28;19920;-44
2022/08/12 16:51:27;;;;;;;;;;;28.20;34.70;;;;;;8402082;28;20285;-45
2022/08/12 16:55:30;;;;;;;;;;;28.20;34.70;;;;;;8401977;28;19925;-44
2022/08/12 16:59:30;;;;;;;;;;;28.20;34.80;;;;;;8401380;28;20327;-44
2022/08/12 17:03:34;;;;;;;;;;;28.20;34.80;;;;;;8401499;28;19916;-44
2022/08/12 17:07:39;;;;;;;;;;;28.20;34.80;;;;;;8401404;28;19913;-43
2022/08/12 17:11:39;;;;;;;;;;;28.20;34.80;;;;;;8400835;28;20324;-44
2022/08/12 17:15:40;;;;;;;;;;;28.20;34.70;;;;;;8401585;28;19955;-44
2022/08/12 17:19:42;;;;;;;;;;;28.20;34.70;;;;;;8401038;28;20008;-43
2022/08/12 17:23:48;;;;;;;;;;;28.20;34.80;;;;;;8400724;28;20300;-44
2022/08/12 17:27:49;;;;;;;;;;;28.20;34.80;;;;;;8400916;28;19919;-43
2022/08/12 17:31:50;;;;;;;;;;;28.20;34.80;;;;;;8401004;28;19921;-47
2022/08/12 17:35:52;;;;;;;;;;;28.20;34.90;;;;;;8400560;28;20042;-46
2022/08/12 17:39:52;;;;;;;;;;;28.20;34.80;;;;;;8400716;28;19956;-45
2022/08/12 17:43:52;;;;;;;;;;;28.20;34.80;;;;;;8398618;28;20389;-46
2022/08/12 17:47:59;;;;;;;;;;;28.20;34.90;;;;;;8400175;28;19994;-46
2022/08/12 17:52:00;;;;;;;;;;;28.20;34.80;;;;;;8400001;28;20416;-45
2022/08/12 17:56:02;;;;;;;;;;;28.10;34.80;;;;;;8398814;28;19920;-44
2022/08/12 18:00:11;;;;;;;;;;;28.10;34.80;;;;;;8400147;28;19961;-45
2022/08/12 18:04:15;;;;;;;;;;;28.10;34.90;;;;;;8400000;28;19923;-45
2022/08/12 18:08:16;;;;;;;;;;;28.10;34.80;;;;;;8399255;28;19917;-46
2022/08/12 18:12:49;;;;;;;;;;;28.10;34.90;;;;;;8398196;28;19955;-46
2022/08/12 18:16:44;;;;;;;;;;;28.10;34.90;;;;;;8397660;28;20296;-44
2022/08/12 18:20:45;;;;;;;;;;;28.10;34.90;;;;;;8398790;28;19920;-46
2022/08/12 18:24:45;;;;;;;;;;;28.10;34.90;;;;;;8399183;28;19928;-46
2022/08/12 18:28:46;;;;;;;;;;;28.10;34.90;;;;;;8398762;28;20285;-45
2022/08/12 18:32:49;;;;;;;;;;;28.10;34.90;;;;;;8398108;28;19920;-44
2022/08/12 18:36:50;;;;;;;;;;;28.10;35.00;;;;;;8399002;28;19985;-45
2022/08/12 18:45:12;;;;;;;;;;;28.10;35.00;;;;;;8398138;28;19970;-45
2022/08/12 18:49:15;;;;;;;;;;;28.10;35.00;;;;;;8398373;28;19912;-45
2022/08/12 18:53:17;;;;;;;;;;;28.10;35.00;;;;;;8397538;28;19920;-47
2022/08/12 18:57:18;;;;;;;;;;;28.10;35.10;;;;;;8398101;28;19916;-45
2022/08/12 19:01:18;;;;;;;;;;;28.00;35.00;;;;;;8397937;28;19940;-43
2022/08/12 19:05:19;;;;;;;;;;;28.00;35.00;;;;;;8397016;28;20293;-45
2022/08/12 19:09:19;;;;;;;;;;;28.00;35.00;;;;;;8392060;28;20007;-45
2022/08/12 19:17:44;;;;;;;;;;;28.00;35.10;;;;;;8397422;28;20468;-46
2022/08/12 19:21:46;;;;;;;;;;;28.00;35.00;;;;;;8396023;28;19912;-44
2022/08/12 19:25:46;;;;;;;;;;;28.00;35.10;;;;;;8397545;28;20426;-44
2022/08/12 19:29:46;;;;;;;;;;;28.00;35.10;;;;;;8396364;28;19961;-45
2022/08/12 19:33:47;;;;;;;;;;;28.00;35.10;;;;;;8396655;28;19932;-44
2022/08/12 19:37:48;;;;;;;;;;;28.00;35.10;;;;;;8396762;28;19962;-46
2022/08/12 19:41:52;;;;;;;;;;;28.00;35.10;;;;;;8395818;28;21300;-45
2022/08/12 19:45:53;;;;;;;;;;;28.00;35.00;;;;;;8396781;28;19916;-45
2022/08/12 19:49:55;;;;;;;;;;;28.00;35.10;;;;;;8396301;28;19913;-44
2022/08/12 19:53:56;;;;;;;;;;;28.00;35.10;;;;;;8396816;28;19924;-44
2022/08/12 19:57:57;;;;;;;;;;;27.90;35.00;;;;;;8396523;28;19916;-45
2022/08/12 20:02:01;;;;;;;;;;;27.90;35.00;;;;;;8396287;28;19917;-45
2022/08/12 20:06:01;;;;;;;;;;;27.90;35.00;;;;;;8396412;28;19916;-44
2022/08/12 20:10:04;;;;;;;;;;;27.90;35.00;;;;;;8396358;28;19995;-45
2022/08/12 20:14:05;;;;;;;;;;;27.90;35.00;;;;;;8395773;28;19921;-45
2022/08/12 20:18:07;;;;;;;;;;;27.90;35.10;;;;;;8397539;28;20358;-46
2022/08/12 20:22:11;;;;;;;;;;;27.90;35.10;;;;;;8403142;28;19923;-45
2022/08/12 20:26:12;;;;;;;;;;;27.90;35.10;;;;;;8402381;28;19992;-46
2022/08/12 20:30:13;;;;;;;;;;;27.90;35.10;;;;;;8401706;28;19916;-45
2022/08/12 20:34:16;;;;;;;;;;;27.90;35.10;;;;;;8402482;28;19935;-45
2022/08/12 20:38:16;;;;;;;;;;;27.80;35.00;;;;;;8402344;28;19923;-45
2022/08/12 20:42:17;;;;;;;;;;;27.80;35.00;;;;;;8402739;28;19913;-45
2022/08/12 20:46:18;;;;;;;;;;;27.80;35.60;;;;;;8402110;28;20028;-45
2022/08/12 20:50:19;;;;;;;;;;;27.80;35.00;;;;;;8401688;28;20437;-45
2022/08/12 20:54:20;;;;;;;;;;;27.80;35.10;;;;;;8402067;28;20301;-44
2022/08/12 20:58:21;;;;;;;;;;;27.80;35.00;;;;;;8401814;28;19916;-45
2022/08/12 21:02:22;;;;;;;;;;;27.80;35.60;;;;;;8401394;28;19912;-47
2022/08/12 21:10:41;;;;;;;;;;;27.80;35.00;;;;;;8401589;28;19939;-45
2022/08/12 21:14:42;;;;;;;;;;;27.80;35.10;;;;;;8400682;28;19925;-45
2022/08/12 21:18:46;;;;;;;;;;;27.80;35.10;;;;;;8401062;28;19966;-44
2022/08/12 21:22:46;;;;;;;;;;;27.70;35.00;;;;;;8401222;28;19920;-45
2022/08/12 21:26:50;;;;;;;;;;;27.70;35.10;;;;;;8400338;28;19955;-45
2022/08/12 21:30:50;;;;;;;;;;;27.70;35.00;;;;;;8399632;28;19924;-45
2022/08/12 21:34:51;;;;;;;;;;;27.80;35.10;;;;;;8400591;28;19977;-44
2022/08/12 21:38:56;;;;;;;;;;;27.70;35.10;;;;;;8400008;28;19924;-45
2022/08/12 21:42:57;;;;;;;;;;;27.70;35.10;;;;;;8400852;28;19912;-45
2022/08/12 21:47:03;;;;;;;;;;;27.70;35.00;;;;;;8399878;28;20379;-44
2022/08/12 21:51:06;;;;;;;;;;;27.70;35.10;;;;;;8400167;28;20015;-47
2022/08/12 21:55:08;;;;;;;;;;;27.70;35.10;;;;;;8399933;28;19924;-45
2022/08/12 21:59:10;;;;;;;;;;;27.60;35.00;;;;;;8399531;28;20003;-45
2022/08/12 22:07:29;;;;;;;;;;;27.60;35.00;;;;;;8399423;28;19923;-45
2022/08/12 22:11:30;;;;;;;;;;;27.60;35.00;;;;;;8398888;28;20358;-45
2022/08/12 22:15:30;;;;;;;;;;;27.60;35.00;;;;;;8399400;28;19925;-44
2022/08/12 22:19:32;;;;;;;;;;;27.60;35.00;;;;;;8399393;28;20358;-45
2022/08/12 22:23:34;;;;;;;;;;;27.60;35.00;;;;;;8398611;28;20004;-45
2022/08/12 22:31:54;;;;;;;;;;;27.60;35.10;;;;;;8398854;28;20276;-43
2022/08/12 22:35:56;;;;;;;;;;;27.60;35.10;;;;;;8399204;28;19952;-45
2022/08/12 22:39:56;;;;;;;;;;;27.60;35.10;;;;;;8398775;28;19927;-46
2022/08/12 22:48:16;;;;;;;;;;;27.60;35.10;;;;;;8403377;28;19924;-45
2022/08/12 22:52:17;;;;;;;;;;;27.50;35.00;;;;;;8398259;28;19917;-45
2022/08/12 22:56:21;;;;;;;;;;;27.50;35.00;;;;;;8397537;28;19936;-45
2022/08/12 23:00:21;;;;;;;;;;;27.50;35.00;;;;;;8397960;28;19920;-45
2022/08/12 23:04:23;;;;;;;;;;;27.50;35.00;;;;;;8397720;28;19916;-45
2022/08/12 23:08:24;;;;;;;;;;;27.50;35.10;;;;;;8397455;28;20000;-45
2022/08/12 23:16:45;;;;;;;;;;;27.40;35.00;;;;;;8400549;28;20021;-45
2022/08/12 23:20:46;;;;;;;;;;;27.50;35.10;;;;;;8396976;28;20007;-45
2022/08/12 23:24:46;;;;;;;;;;;27.40;35.10;;;;;;8397146;28;19916;-45
2022/08/12 23:33:06;;;;;;;;;;;27.40;35.10;;;;;;8397091;28;20304;-45
2022/08/12 23:37:07;;;;;;;;;;;27.40;35.30;;;;;;8396858;28;19925;-45
2022/08/12 23:41:10;;;;;;;;;;;27.40;35.10;;;;;;8396558;28;19999;-45
2022/08/12 23:45:11;;;;;;;;;;;27.40;35.10;;;;;;8396955;28;19913;-45
2022/08/12 23:49:11;;;;;;;;;;;27.40;35.10;;;;;;8396736;28;20431;-45
2022/08/12 23:53:12;;;;;;;;;;;27.30;35.10;;;;;;8395901;28;20019;-45
2022/08/12 23:57:15;;;;;;;;;;;27.30;35.00;;;;;;8396307;28;19931;-45
